sensor_id;sensor_type;location;lat;lon;timestamp;P1;durP1;ratioP1;P2;durP2;ratioP2
27744;SDS011;61387;48.112;8.616;2023-05-07T00:01:41;5.33;;;3.70;;
27744;SDS011;61387;48.112;8.616;2023-05-07T00:04:07;7.13;;;4.03;;
27744;SDS011;61387;48.112;8.616;2023-05-07T00:06:33;8.33;;;4.37;;
27744;SDS011;61387;48.112;8.616;2023-05-07T00:09:00;7.60;;;4.50;;
27744;SDS011;61387;48.112;8.616;2023-05-07T00:11:27;5.60;;;4.17;;
27744;SDS011;61387;48.112;8.616;2023-05-07T00:13:53;6.87;;;4.30;;
27744;SDS011;61387;48.112;8.616;2023-05-07T00:16:19;6.70;;;3.87;;
27744;SDS011;61387;48.112;8.616;2023-05-07T00:18:45;5.73;;;3.40;;
27744;SDS011;61387;48.112;8.616;2023-05-07T00:21:11;9.13;;;4.37;;
27744;SDS011;61387;48.112;8.616;2023-05-07T00:23:37;7.13;;;4.30;;
27744;SDS011;61387;48.112;8.616;2023-05-07T00:26:03;6.47;;;4.00;;
27744;SDS011;61387;48.112;8.616;2023-05-07T00:28:29;5.53;;;3.63;;
27744;SDS011;61387;48.112;8.616;2023-05-07T00:30:55;7.47;;;3.90;;
27744;SDS011;61387;48.112;8.616;2023-05-07T00:33:22;7.63;;;3.27;;
27744;SDS011;61387;48.112;8.616;2023-05-07T00:35:48;8.17;;;3.80;;
27744;SDS011;61387;48.112;8.616;2023-05-07T00:38:14;6.67;;;3.67;;
27744;SDS011;61387;48.112;8.616;2023-05-07T00:40:40;7.33;;;3.70;;
27744;SDS011;61387;48.112;8.616;2023-05-07T00:43:06;5.57;;;3.30;;
27744;SDS011;61387;48.112;8.616;2023-05-07T00:45:32;6.20;;;3.67;;
27744;SDS011;61387;48.112;8.616;2023-05-07T00:47:59;8.67;;;3.90;;
27744;SDS011;61387;48.112;8.616;2023-05-07T00:50:27;5.47;;;3.90;;
27744;SDS011;61387;48.112;8.616;2023-05-07T00:52:54;7.73;;;3.70;;
27744;SDS011;61387;48.112;8.616;2023-05-07T00:55:20;8.47;;;4.17;;
27744;SDS011;61387;48.112;8.616;2023-05-07T00:57:47;8.53;;;4.40;;
27744;SDS011;61387;48.112;8.616;2023-05-07T01:00:13;7.47;;;5.00;;
27744;SDS011;61387;48.112;8.616;2023-05-07T01:02:39;9.67;;;4.93;;
27744;SDS011;61387;48.112;8.616;2023-05-07T01:05:05;9.70;;;4.30;;
27744;SDS011;61387;48.112;8.616;2023-05-07T01:07:33;8.37;;;4.10;;
27744;SDS011;61387;48.112;8.616;2023-05-07T01:09:59;7.50;;;4.33;;
27744;SDS011;61387;48.112;8.616;2023-05-07T01:12:26;6.27;;;4.10;;
27744;SDS011;61387;48.112;8.616;2023-05-07T01:14:53;7.50;;;4.10;;
27744;SDS011;61387;48.112;8.616;2023-05-07T01:17:19;6.63;;;3.93;;
27744;SDS011;61387;48.112;8.616;2023-05-07T01:19:45;6.80;;;4.03;;
27744;SDS011;61387;48.112;8.616;2023-05-07T01:22:12;7.20;;;4.20;;
27744;SDS011;61387;48.112;8.616;2023-05-07T01:24:41;6.73;;;3.90;;
27744;SDS011;61387;48.112;8.616;2023-05-07T01:27:07;7.83;;;4.00;;
27744;SDS011;61387;48.112;8.616;2023-05-07T01:29:33;7.47;;;4.13;;
27744;SDS011;61387;48.112;8.616;2023-05-07T01:31:59;7.93;;;3.70;;
27744;SDS011;61387;48.112;8.616;2023-05-07T01:34:27;6.17;;;3.90;;
27744;SDS011;61387;48.112;8.616;2023-05-07T01:36:55;5.13;;;3.57;;
27744;SDS011;61387;48.112;8.616;2023-05-07T01:39:26;6.67;;;4.27;;
27744;SDS011;61387;48.112;8.616;2023-05-07T01:41:54;6.03;;;3.37;;
27744;SDS011;61387;48.112;8.616;2023-05-07T01:44:21;6.37;;;3.53;;
27744;SDS011;61387;48.112;8.616;2023-05-07T01:46:47;4.30;;;3.37;;
27744;SDS011;61387;48.112;8.616;2023-05-07T01:49:13;6.73;;;3.67;;
27744;SDS011;61387;48.112;8.616;2023-05-07T01:51:40;5.50;;;3.30;;
27744;SDS011;61387;48.112;8.616;2023-05-07T01:54:06;6.47;;;3.50;;
27744;SDS011;61387;48.112;8.616;2023-05-07T01:56:33;7.27;;;3.70;;
27744;SDS011;61387;48.112;8.616;2023-05-07T01:59:00;5.40;;;3.60;;
27744;SDS011;61387;48.112;8.616;2023-05-07T02:01:26;5.87;;;3.87;;
27744;SDS011;61387;48.112;8.616;2023-05-07T02:03:52;8.00;;;4.03;;
27744;SDS011;61387;48.112;8.616;2023-05-07T02:06:18;6.43;;;4.00;;
27744;SDS011;61387;48.112;8.616;2023-05-07T02:08:45;7.67;;;4.20;;
27744;SDS011;61387;48.112;8.616;2023-05-07T02:11:11;9.80;;;4.37;;
27744;SDS011;61387;48.112;8.616;2023-05-07T02:13:37;6.10;;;4.00;;
27744;SDS011;61387;48.112;8.616;2023-05-07T02:16:03;6.57;;;4.17;;
27744;SDS011;61387;48.112;8.616;2023-05-07T02:18:29;7.87;;;4.63;;
27744;SDS011;61387;48.112;8.616;2023-05-07T02:20:55;8.40;;;4.10;;
27744;SDS011;61387;48.112;8.616;2023-05-07T02:23:21;6.63;;;4.30;;
27744;SDS011;61387;48.112;8.616;2023-05-07T02:25:47;5.77;;;4.00;;
27744;SDS011;61387;48.112;8.616;2023-05-07T02:28:13;6.37;;;4.07;;
27744;SDS011;61387;48.112;8.616;2023-05-07T02:30:39;6.10;;;4.10;;
27744;SDS011;61387;48.112;8.616;2023-05-07T02:33:05;8.33;;;4.23;;
27744;SDS011;61387;48.112;8.616;2023-05-07T02:35:33;9.93;;;4.30;;
27744;SDS011;61387;48.112;8.616;2023-05-07T02:37:59;6.80;;;4.10;;
27744;SDS011;61387;48.112;8.616;2023-05-07T02:40:24;7.37;;;4.27;;
27744;SDS011;61387;48.112;8.616;2023-05-07T02:42:50;9.53;;;3.90;;
27744;SDS011;61387;48.112;8.616;2023-05-07T02:45:16;6.87;;;3.80;;
27744;SDS011;61387;48.112;8.616;2023-05-07T02:47:42;6.03;;;3.57;;
27744;SDS011;61387;48.112;8.616;2023-05-07T02:50:08;7.23;;;3.87;;
27744;SDS011;61387;48.112;8.616;2023-05-07T02:52:34;8.33;;;4.33;;
27744;SDS011;61387;48.112;8.616;2023-05-07T02:55:00;6.20;;;3.70;;
27744;SDS011;61387;48.112;8.616;2023-05-07T02:57:26;6.67;;;3.67;;
27744;SDS011;61387;48.112;8.616;2023-05-07T02:59:51;5.57;;;3.80;;
27744;SDS011;61387;48.112;8.616;2023-05-07T03:02:17;6.00;;;4.00;;
27744;SDS011;61387;48.112;8.616;2023-05-07T03:04:43;5.80;;;3.80;;
27744;SDS011;61387;48.112;8.616;2023-05-07T03:07:09;6.27;;;3.60;;
27744;SDS011;61387;48.112;8.616;2023-05-07T03:09:34;6.20;;;3.70;;
27744;SDS011;61387;48.112;8.616;2023-05-07T03:12:00;7.27;;;3.77;;
27744;SDS011;61387;48.112;8.616;2023-05-07T03:14:26;5.23;;;3.30;;
27744;SDS011;61387;48.112;8.616;2023-05-07T03:16:52;6.93;;;4.30;;
27744;SDS011;61387;48.112;8.616;2023-05-07T03:19:18;7.50;;;3.63;;
27744;SDS011;61387;48.112;8.616;2023-05-07T03:21:44;5.37;;;3.53;;
27744;SDS011;61387;48.112;8.616;2023-05-07T03:24:10;7.13;;;4.03;;
27744;SDS011;61387;48.112;8.616;2023-05-07T03:26:36;4.83;;;3.30;;
27744;SDS011;61387;48.112;8.616;2023-05-07T03:29:01;5.20;;;3.33;;
27744;SDS011;61387;48.112;8.616;2023-05-07T03:31:27;4.63;;;3.27;;
27744;SDS011;61387;48.112;8.616;2023-05-07T03:33:55;5.03;;;3.30;;
27744;SDS011;61387;48.112;8.616;2023-05-07T03:36:22;3.80;;;3.20;;
27744;SDS011;61387;48.112;8.616;2023-05-07T03:38:48;6.03;;;3.87;;
27744;SDS011;61387;48.112;8.616;2023-05-07T03:41:14;5.20;;;3.50;;
27744;SDS011;61387;48.112;8.616;2023-05-07T03:43:41;5.73;;;3.43;;
27744;SDS011;61387;48.112;8.616;2023-05-07T03:46:07;5.00;;;3.60;;
27744;SDS011;61387;48.112;8.616;2023-05-07T03:48:33;7.77;;;3.87;;
27744;SDS011;61387;48.112;8.616;2023-05-07T03:50:59;5.30;;;3.63;;
27744;SDS011;61387;48.112;8.616;2023-05-07T03:53:24;5.47;;;3.57;;
27744;SDS011;61387;48.112;8.616;2023-05-07T03:55:50;8.17;;;3.57;;
27744;SDS011;61387;48.112;8.616;2023-05-07T03:58:16;6.12;;;3.90;;
27744;SDS011;61387;48.112;8.616;2023-05-07T04:00:42;7.73;;;4.00;;
27744;SDS011;61387;48.112;8.616;2023-05-07T04:03:08;7.60;;;4.20;;
27744;SDS011;61387;48.112;8.616;2023-05-07T04:05:34;7.10;;;3.90;;
27744;SDS011;61387;48.112;8.616;2023-05-07T04:07:59;8.13;;;4.10;;
27744;SDS011;61387;48.112;8.616;2023-05-07T04:10:26;10.77;;;4.30;;
27744;SDS011;61387;48.112;8.616;2023-05-07T04:12:53;7.43;;;4.63;;
27744;SDS011;61387;48.112;8.616;2023-05-07T04:15:19;8.53;;;5.20;;
27744;SDS011;61387;48.112;8.616;2023-05-07T04:17:45;7.90;;;4.33;;
27744;SDS011;61387;48.112;8.616;2023-05-07T04:20:13;9.37;;;6.20;;
27744;SDS011;61387;48.112;8.616;2023-05-07T04:22:40;8.43;;;5.13;;
27744;SDS011;61387;48.112;8.616;2023-05-07T04:25:06;7.70;;;4.73;;
27744;SDS011;61387;48.112;8.616;2023-05-07T04:27:34;7.83;;;4.60;;
27744;SDS011;61387;48.112;8.616;2023-05-07T04:30:00;7.87;;;4.40;;
27744;SDS011;61387;48.112;8.616;2023-05-07T04:32:26;6.03;;;4.50;;
27744;SDS011;61387;48.112;8.616;2023-05-07T04:34:54;7.50;;;4.60;;
27744;SDS011;61387;48.112;8.616;2023-05-07T04:37:20;20.10;;;6.90;;
27744;SDS011;61387;48.112;8.616;2023-05-07T04:39:46;7.70;;;4.43;;
27744;SDS011;61387;48.112;8.616;2023-05-07T04:42:15;6.60;;;4.50;;
27744;SDS011;61387;48.112;8.616;2023-05-07T04:44:42;8.80;;;4.77;;
27744;SDS011;61387;48.112;8.616;2023-05-07T04:47:08;5.67;;;4.07;;
27744;SDS011;61387;48.112;8.616;2023-05-07T04:49:35;6.37;;;4.27;;
27744;SDS011;61387;48.112;8.616;2023-05-07T04:52:01;7.57;;;4.57;;
27744;SDS011;61387;48.112;8.616;2023-05-07T04:54:28;7.87;;;4.93;;
27744;SDS011;61387;48.112;8.616;2023-05-07T04:56:54;6.90;;;4.70;;
27744;SDS011;61387;48.112;8.616;2023-05-07T04:59:20;6.97;;;4.30;;
27744;SDS011;61387;48.112;8.616;2023-05-07T05:01:46;6.60;;;3.90;;
27744;SDS011;61387;48.112;8.616;2023-05-07T05:04:12;4.83;;;3.57;;
27744;SDS011;61387;48.112;8.616;2023-05-07T05:06:38;5.93;;;4.13;;
27744;SDS011;61387;48.112;8.616;2023-05-07T05:09:04;7.67;;;4.23;;
27744;SDS011;61387;48.112;8.616;2023-05-07T05:11:31;6.13;;;4.33;;
27744;SDS011;61387;48.112;8.616;2023-05-07T05:13:58;6.67;;;4.57;;
27744;SDS011;61387;48.112;8.616;2023-05-07T05:16:24;7.07;;;4.20;;
27744;SDS011;61387;48.112;8.616;2023-05-07T05:18:50;6.23;;;4.03;;
27744;SDS011;61387;48.112;8.616;2023-05-07T05:21:17;7.37;;;4.13;;
27744;SDS011;61387;48.112;8.616;2023-05-07T05:23:43;6.27;;;3.87;;
27744;SDS011;61387;48.112;8.616;2023-05-07T05:26:09;7.17;;;4.20;;
27744;SDS011;61387;48.112;8.616;2023-05-07T05:28:35;4.67;;;3.73;;
27744;SDS011;61387;48.112;8.616;2023-05-07T05:31:01;7.60;;;3.90;;
27744;SDS011;61387;48.112;8.616;2023-05-07T05:33:27;7.80;;;4.20;;
27744;SDS011;61387;48.112;8.616;2023-05-07T05:35:53;6.53;;;4.17;;
27744;SDS011;61387;48.112;8.616;2023-05-07T05:38:19;7.63;;;4.23;;
27744;SDS011;61387;48.112;8.616;2023-05-07T05:40:45;9.47;;;4.77;;
27744;SDS011;61387;48.112;8.616;2023-05-07T05:43:11;7.90;;;4.27;;
27744;SDS011;61387;48.112;8.616;2023-05-07T05:45:37;6.37;;;4.37;;
27744;SDS011;61387;48.112;8.616;2023-05-07T05:48:03;6.33;;;4.20;;
27744;SDS011;61387;48.112;8.616;2023-05-07T05:50:29;8.33;;;4.40;;
27744;SDS011;61387;48.112;8.616;2023-05-07T05:52:54;5.60;;;4.33;;
27744;SDS011;61387;48.112;8.616;2023-05-07T05:55:21;6.70;;;4.17;;
27744;SDS011;61387;48.112;8.616;2023-05-07T05:57:47;7.03;;;4.20;;
27744;SDS011;61387;48.112;8.616;2023-05-07T06:00:13;7.10;;;4.70;;
27744;SDS011;61387;48.112;8.616;2023-05-07T06:02:39;6.73;;;4.07;;
27744;SDS011;61387;48.112;8.616;2023-05-07T06:05:04;6.87;;;4.60;;
27744;SDS011;61387;48.112;8.616;2023-05-07T06:07:30;6.70;;;4.30;;
27744;SDS011;61387;48.112;8.616;2023-05-07T06:09:56;5.87;;;3.80;;
27744;SDS011;61387;48.112;8.616;2023-05-07T06:12:22;6.70;;;4.50;;
27744;SDS011;61387;48.112;8.616;2023-05-07T06:14:48;8.10;;;4.70;;
27744;SDS011;61387;48.112;8.616;2023-05-07T06:17:14;6.30;;;4.03;;
27744;SDS011;61387;48.112;8.616;2023-05-07T06:19:39;6.10;;;3.97;;
27744;SDS011;61387;48.112;8.616;2023-05-07T06:22:05;5.70;;;3.73;;
27744;SDS011;61387;48.112;8.616;2023-05-07T06:24:31;5.60;;;4.00;;
27744;SDS011;61387;48.112;8.616;2023-05-07T06:26:57;5.77;;;3.80;;
27744;SDS011;61387;48.112;8.616;2023-05-07T06:29:23;5.87;;;4.30;;
27744;SDS011;61387;48.112;8.616;2023-05-07T06:31:50;8.10;;;4.40;;
27744;SDS011;61387;48.112;8.616;2023-05-07T06:34:16;6.67;;;4.20;;
27744;SDS011;61387;48.112;8.616;2023-05-07T06:36:42;7.80;;;4.67;;
27744;SDS011;61387;48.112;8.616;2023-05-07T06:39:11;6.13;;;4.30;;
27744;SDS011;61387;48.112;8.616;2023-05-07T06:41:37;6.83;;;4.37;;
27744;SDS011;61387;48.112;8.616;2023-05-07T06:44:04;8.07;;;4.30;;
27744;SDS011;61387;48.112;8.616;2023-05-07T06:46:29;6.47;;;4.27;;
27744;SDS011;61387;48.112;8.616;2023-05-07T06:48:55;7.47;;;4.67;;
27744;SDS011;61387;48.112;8.616;2023-05-07T06:51:22;8.10;;;5.40;;
27744;SDS011;61387;48.112;8.616;2023-05-07T06:53:47;6.90;;;4.57;;
27744;SDS011;61387;48.112;8.616;2023-05-07T06:56:15;6.70;;;4.37;;
27744;SDS011;61387;48.112;8.616;2023-05-07T06:58:40;6.43;;;4.50;;
27744;SDS011;61387;48.112;8.616;2023-05-07T07:01:06;6.70;;;4.20;;
27744;SDS011;61387;48.112;8.616;2023-05-07T07:03:32;8.17;;;4.83;;
27744;SDS011;61387;48.112;8.616;2023-05-07T07:05:58;7.67;;;4.40;;
27744;SDS011;61387;48.112;8.616;2023-05-07T07:08:24;7.77;;;4.00;;
27744;SDS011;61387;48.112;8.616;2023-05-07T07:10:51;7.90;;;4.27;;
27744;SDS011;61387;48.112;8.616;2023-05-07T07:13:16;6.13;;;4.20;;
27744;SDS011;61387;48.112;8.616;2023-05-07T07:15:42;5.20;;;4.00;;
27744;SDS011;61387;48.112;8.616;2023-05-07T07:18:08;5.77;;;3.87;;
27744;SDS011;61387;48.112;8.616;2023-05-07T07:20:34;5.20;;;3.67;;
27744;SDS011;61387;48.112;8.616;2023-05-07T07:23:00;7.27;;;3.63;;
27744;SDS011;61387;48.112;8.616;2023-05-07T07:25:26;5.53;;;3.60;;
27744;SDS011;61387;48.112;8.616;2023-05-07T07:27:52;6.37;;;3.50;;
27744;SDS011;61387;48.112;8.616;2023-05-07T07:30:18;6.00;;;3.70;;
27744;SDS011;61387;48.112;8.616;2023-05-07T07:32:43;7.27;;;3.30;;
27744;SDS011;61387;48.112;8.616;2023-05-07T07:35:11;6.50;;;3.30;;
27744;SDS011;61387;48.112;8.616;2023-05-07T07:37:37;7.00;;;3.50;;
27744;SDS011;61387;48.112;8.616;2023-05-07T07:40:02;5.22;;;3.10;;
27744;SDS011;61387;48.112;8.616;2023-05-07T07:42:28;8.10;;;3.47;;
27744;SDS011;61387;48.112;8.616;2023-05-07T07:44:55;5.90;;;3.03;;
27744;SDS011;61387;48.112;8.616;2023-05-07T07:47:22;5.32;;;3.30;;
27744;SDS011;61387;48.112;8.616;2023-05-07T07:49:47;4.67;;;3.10;;
27744;SDS011;61387;48.112;8.616;2023-05-07T07:52:13;4.43;;;3.17;;
27744;SDS011;61387;48.112;8.616;2023-05-07T07:54:39;4.50;;;2.95;;
27744;SDS011;61387;48.112;8.616;2023-05-07T07:57:05;4.87;;;3.30;;
27744;SDS011;61387;48.112;8.616;2023-05-07T07:59:30;4.75;;;3.00;;
27744;SDS011;61387;48.112;8.616;2023-05-07T08:01:56;4.57;;;3.13;;
27744;SDS011;61387;48.112;8.616;2023-05-07T08:04:22;4.87;;;2.90;;
27744;SDS011;61387;48.112;8.616;2023-05-07T08:06:48;5.05;;;3.08;;
27744;SDS011;61387;48.112;8.616;2023-05-07T08:09:14;3.20;;;2.70;;
27744;SDS011;61387;48.112;8.616;2023-05-07T08:11:39;5.20;;;3.33;;
27744;SDS011;61387;48.112;8.616;2023-05-07T08:14:05;4.40;;;2.73;;
27744;SDS011;61387;48.112;8.616;2023-05-07T08:16:31;4.62;;;2.65;;
27744;SDS011;61387;48.112;8.616;2023-05-07T08:18:56;4.23;;;2.70;;
27744;SDS011;61387;48.112;8.616;2023-05-07T08:21:22;4.90;;;2.80;;
27744;SDS011;61387;48.112;8.616;2023-05-07T08:23:48;4.90;;;2.83;;
27744;SDS011;61387;48.112;8.616;2023-05-07T08:26:14;4.33;;;2.70;;
27744;SDS011;61387;48.112;8.616;2023-05-07T08:28:40;4.33;;;2.60;;
27744;SDS011;61387;48.112;8.616;2023-05-07T08:31:05;6.07;;;3.20;;
27744;SDS011;61387;48.112;8.616;2023-05-07T08:33:31;3.43;;;2.50;;
27744;SDS011;61387;48.112;8.616;2023-05-07T08:35:57;4.53;;;2.80;;
27744;SDS011;61387;48.112;8.616;2023-05-07T08:38:23;4.93;;;2.30;;
27744;SDS011;61387;48.112;8.616;2023-05-07T08:40:49;3.50;;;2.70;;
27744;SDS011;61387;48.112;8.616;2023-05-07T08:43:14;3.70;;;2.20;;
27744;SDS011;61387;48.112;8.616;2023-05-07T08:45:41;3.62;;;2.00;;
27744;SDS011;61387;48.112;8.616;2023-05-07T08:48:14;3.58;;;2.25;;
27744;SDS011;61387;48.112;8.616;2023-05-07T08:50:41;2.83;;;2.05;;
27744;SDS011;61387;48.112;8.616;2023-05-07T08:53:07;3.20;;;2.10;;
27744;SDS011;61387;48.112;8.616;2023-05-07T08:55:32;3.90;;;2.53;;
27744;SDS011;61387;48.112;8.616;2023-05-07T08:57:58;3.10;;;2.00;;
27744;SDS011;61387;48.112;8.616;2023-05-07T09:00:24;3.78;;;2.00;;
27744;SDS011;61387;48.112;8.616;2023-05-07T09:02:50;5.30;;;2.28;;
27744;SDS011;61387;48.112;8.616;2023-05-07T09:05:15;3.40;;;2.33;;
27744;SDS011;61387;48.112;8.616;2023-05-07T09:07:41;6.32;;;3.33;;
27744;SDS011;61387;48.112;8.616;2023-05-07T09:10:07;3.03;;;2.00;;
27744;SDS011;61387;48.112;8.616;2023-05-07T09:12:33;4.72;;;2.45;;
27744;SDS011;61387;48.112;8.616;2023-05-07T09:15:00;3.92;;;2.10;;
27744;SDS011;61387;48.112;8.616;2023-05-07T09:17:26;4.87;;;2.13;;
27744;SDS011;61387;48.112;8.616;2023-05-07T09:19:51;3.40;;;2.20;;
27744;SDS011;61387;48.112;8.616;2023-05-07T09:22:18;3.72;;;2.15;;
27744;SDS011;61387;48.112;8.616;2023-05-07T09:24:50;3.53;;;2.10;;
27744;SDS011;61387;48.112;8.616;2023-05-07T09:27:17;4.10;;;2.20;;
27744;SDS011;61387;48.112;8.616;2023-05-07T09:29:43;3.92;;;2.15;;
27744;SDS011;61387;48.112;8.616;2023-05-07T09:32:09;3.15;;;2.22;;
27744;SDS011;61387;48.112;8.616;2023-05-07T09:34:35;2.60;;;2.10;;
27744;SDS011;61387;48.112;8.616;2023-05-07T09:37:04;2.77;;;2.00;;
27744;SDS011;61387;48.112;8.616;2023-05-07T09:39:47;5.50;;;2.28;;
27744;SDS011;61387;48.112;8.616;2023-05-07T09:42:13;2.80;;;2.10;;
27744;SDS011;61387;48.112;8.616;2023-05-07T09:44:43;3.05;;;2.20;;
27744;SDS011;61387;48.112;8.616;2023-05-07T09:47:09;3.12;;;2.40;;
27744;SDS011;61387;48.112;8.616;2023-05-07T09:49:37;5.70;;;2.20;;
27744;SDS011;61387;48.112;8.616;2023-05-07T09:52:05;3.50;;;2.20;;
27744;SDS011;61387;48.112;8.616;2023-05-07T09:54:33;2.83;;;2.30;;
27744;SDS011;61387;48.112;8.616;2023-05-07T09:57:03;3.33;;;2.12;;
27744;SDS011;61387;48.112;8.616;2023-05-07T09:59:31;5.87;;;2.30;;
27744;SDS011;61387;48.112;8.616;2023-05-07T10:01:58;1.87;;;1.70;;
27744;SDS011;61387;48.112;8.616;2023-05-07T10:04:27;3.55;;;2.30;;
27744;SDS011;61387;48.112;8.616;2023-05-07T10:06:54;2.78;;;2.12;;
27744;SDS011;61387;48.112;8.616;2023-05-07T10:09:20;4.97;;;2.20;;
27744;SDS011;61387;48.112;8.616;2023-05-07T10:11:48;3.72;;;2.05;;
27744;SDS011;61387;48.112;8.616;2023-05-07T10:14:15;4.78;;;2.15;;
27744;SDS011;61387;48.112;8.616;2023-05-07T10:16:40;2.73;;;2.10;;
27744;SDS011;61387;48.112;8.616;2023-05-07T10:19:07;3.58;;;2.00;;
27744;SDS011;61387;48.112;8.616;2023-05-07T10:21:37;3.53;;;2.20;;
27744;SDS011;61387;48.112;8.616;2023-05-07T10:24:09;2.25;;;2.05;;
27744;SDS011;61387;48.112;8.616;2023-05-07T10:26:45;4.78;;;2.12;;
27744;SDS011;61387;48.112;8.616;2023-05-07T10:34:26;2.78;;;2.10;;
27744;SDS011;61387;48.112;8.616;2023-05-07T10:36:57;4.57;;;2.25;;
27744;SDS011;61387;48.112;8.616;2023-05-07T10:39:24;3.97;;;2.25;;
27744;SDS011;61387;48.112;8.616;2023-05-07T10:41:50;4.00;;;2.10;;
27744;SDS011;61387;48.112;8.616;2023-05-07T10:44:25;3.47;;;2.30;;
27744;SDS011;61387;48.112;8.616;2023-05-07T10:47:11;2.47;;;1.92;;
27744;SDS011;61387;48.112;8.616;2023-05-07T10:54:42;4.37;;;2.50;;
27744;SDS011;61387;48.112;8.616;2023-05-07T11:05:25;3.75;;;2.55;;
27744;SDS011;61387;48.112;8.616;2023-05-07T11:07:55;3.92;;;2.40;;
27744;SDS011;61387;48.112;8.616;2023-05-07T11:10:21;5.60;;;2.35;;
27744;SDS011;61387;48.112;8.616;2023-05-07T11:12:51;4.37;;;3.00;;
27744;SDS011;61387;48.112;8.616;2023-05-07T11:15:33;6.50;;;3.70;;
27744;SDS011;61387;48.112;8.616;2023-05-07T11:18:01;10.45;;;3.58;;
27744;SDS011;61387;48.112;8.616;2023-05-07T11:26:02;10.57;;;4.12;;
27744;SDS011;61387;48.112;8.616;2023-05-07T11:28:39;9.90;;;3.50;;
27744;SDS011;61387;48.112;8.616;2023-05-07T11:31:06;4.50;;;2.95;;
27744;SDS011;61387;48.112;8.616;2023-05-07T11:33:32;6.15;;;3.05;;
27744;SDS011;61387;48.112;8.616;2023-05-07T11:35:59;6.28;;;3.72;;
27744;SDS011;61387;48.112;8.616;2023-05-07T11:38:25;9.00;;;4.00;;
27744;SDS011;61387;48.112;8.616;2023-05-07T11:40:51;7.70;;;3.90;;
27744;SDS011;61387;48.112;8.616;2023-05-07T11:43:17;7.47;;;4.40;;
27744;SDS011;61387;48.112;8.616;2023-05-07T11:45:44;10.23;;;3.93;;
27744;SDS011;61387;48.112;8.616;2023-05-07T11:48:11;5.70;;;3.63;;
27744;SDS011;61387;48.112;8.616;2023-05-07T11:50:49;8.30;;;3.80;;
27744;SDS011;61387;48.112;8.616;2023-05-07T11:53:16;8.30;;;3.73;;
27744;SDS011;61387;48.112;8.616;2023-05-07T11:55:43;4.90;;;3.27;;
27744;SDS011;61387;48.112;8.616;2023-05-07T11:58:10;5.27;;;3.33;;
27744;SDS011;61387;48.112;8.616;2023-05-07T12:00:37;7.07;;;3.20;;
27744;SDS011;61387;48.112;8.616;2023-05-07T12:03:04;9.27;;;3.30;;
27744;SDS011;61387;48.112;8.616;2023-05-07T12:05:30;5.20;;;3.10;;
27744;SDS011;61387;48.112;8.616;2023-05-07T12:07:59;5.50;;;3.37;;
27744;SDS011;61387;48.112;8.616;2023-05-07T12:10:24;5.83;;;2.77;;
27744;SDS011;61387;48.112;8.616;2023-05-07T12:12:50;6.37;;;3.47;;
27744;SDS011;61387;48.112;8.616;2023-05-07T12:15:16;3.93;;;3.03;;
27744;SDS011;61387;48.112;8.616;2023-05-07T12:17:43;5.60;;;3.20;;
27744;SDS011;61387;48.112;8.616;2023-05-07T12:20:09;4.53;;;2.87;;
27744;SDS011;61387;48.112;8.616;2023-05-07T12:22:35;6.83;;;3.00;;
27744;SDS011;61387;48.112;8.616;2023-05-07T12:25:01;7.23;;;2.87;;
27744;SDS011;61387;48.112;8.616;2023-05-07T12:27:27;5.50;;;2.70;;
27744;SDS011;61387;48.112;8.616;2023-05-07T12:29:53;7.23;;;3.10;;
27744;SDS011;61387;48.112;8.616;2023-05-07T12:32:20;10.03;;;3.37;;
27744;SDS011;61387;48.112;8.616;2023-05-07T12:34:46;9.97;;;3.77;;
27744;SDS011;61387;48.112;8.616;2023-05-07T12:37:14;5.43;;;3.10;;
27744;SDS011;61387;48.112;8.616;2023-05-07T12:39:44;5.53;;;3.50;;
27744;SDS011;61387;48.112;8.616;2023-05-07T12:42:15;5.27;;;2.77;;
27744;SDS011;61387;48.112;8.616;2023-05-07T12:44:41;4.17;;;2.90;;
27744;SDS011;61387;48.112;8.616;2023-05-07T12:47:07;6.07;;;3.50;;
27744;SDS011;61387;48.112;8.616;2023-05-07T12:49:34;5.77;;;2.70;;
27744;SDS011;61387;48.112;8.616;2023-05-07T12:52:02;5.47;;;3.03;;
27744;SDS011;61387;48.112;8.616;2023-05-07T12:54:29;7.30;;;3.67;;
27744;SDS011;61387;48.112;8.616;2023-05-07T12:57:00;7.70;;;3.47;;
27744;SDS011;61387;48.112;8.616;2023-05-07T12:59:37;5.27;;;3.40;;
27744;SDS011;61387;48.112;8.616;2023-05-07T13:02:04;6.93;;;3.07;;
27744;SDS011;61387;48.112;8.616;2023-05-07T13:04:31;6.90;;;3.10;;
27744;SDS011;61387;48.112;8.616;2023-05-07T13:06:57;6.40;;;3.10;;
27744;SDS011;61387;48.112;8.616;2023-05-07T13:09:23;5.83;;;3.53;;
27744;SDS011;61387;48.112;8.616;2023-05-07T13:11:49;5.97;;;3.30;;
27744;SDS011;61387;48.112;8.616;2023-05-07T13:14:15;7.60;;;3.83;;
27744;SDS011;61387;48.112;8.616;2023-05-07T13:16:41;6.23;;;3.40;;
27744;SDS011;61387;48.112;8.616;2023-05-07T13:19:07;6.80;;;3.67;;
27744;SDS011;61387;48.112;8.616;2023-05-07T13:21:33;3.97;;;3.03;;
27744;SDS011;61387;48.112;8.616;2023-05-07T13:23:59;7.20;;;3.70;;
27744;SDS011;61387;48.112;8.616;2023-05-07T13:26:25;7.00;;;3.23;;
27744;SDS011;61387;48.112;8.616;2023-05-07T13:28:51;5.53;;;3.17;;
27744;SDS011;61387;48.112;8.616;2023-05-07T13:31:17;6.50;;;3.60;;
27744;SDS011;61387;48.112;8.616;2023-05-07T13:33:43;3.83;;;2.73;;
27744;SDS011;61387;48.112;8.616;2023-05-07T13:36:08;4.67;;;2.70;;
27744;SDS011;61387;48.112;8.616;2023-05-07T13:38:34;3.12;;;2.50;;
27744;SDS011;61387;48.112;8.616;2023-05-07T13:41:00;6.12;;;2.87;;
27744;SDS011;61387;48.112;8.616;2023-05-07T13:43:26;4.18;;;2.95;;
27744;SDS011;61387;48.112;8.616;2023-05-07T13:45:51;6.30;;;3.37;;
27744;SDS011;61387;48.112;8.616;2023-05-07T13:48:17;4.28;;;3.03;;
27744;SDS011;61387;48.112;8.616;2023-05-07T13:50:43;6.45;;;3.53;;
27744;SDS011;61387;48.112;8.616;2023-05-07T13:53:09;4.53;;;3.00;;
27744;SDS011;61387;48.112;8.616;2023-05-07T13:55:35;5.53;;;3.27;;
27744;SDS011;61387;48.112;8.616;2023-05-07T13:58:01;3.97;;;2.87;;
27744;SDS011;61387;48.112;8.616;2023-05-07T14:00:28;9.73;;;2.80;;
27744;SDS011;61387;48.112;8.616;2023-05-07T14:02:54;4.70;;;2.80;;
27744;SDS011;61387;48.112;8.616;2023-05-07T14:05:20;5.28;;;2.40;;
27744;SDS011;61387;48.112;8.616;2023-05-07T14:07:48;2.92;;;2.28;;
27744;SDS011;61387;48.112;8.616;2023-05-07T14:10:16;3.17;;;2.20;;
27744;SDS011;61387;48.112;8.616;2023-05-07T14:12:43;4.78;;;2.40;;
27744;SDS011;61387;48.112;8.616;2023-05-07T14:15:09;5.18;;;2.58;;
27744;SDS011;61387;48.112;8.616;2023-05-07T14:17:35;5.37;;;2.90;;
27744;SDS011;61387;48.112;8.616;2023-05-07T14:20:01;3.97;;;2.43;;
27744;SDS011;61387;48.112;8.616;2023-05-07T14:22:27;3.63;;;2.60;;
27744;SDS011;61387;48.112;8.616;2023-05-07T14:24:53;4.63;;;2.47;;
27744;SDS011;61387;48.112;8.616;2023-05-07T14:27:19;4.43;;;2.50;;
27744;SDS011;61387;48.112;8.616;2023-05-07T14:29:45;4.33;;;2.13;;
27744;SDS011;61387;48.112;8.616;2023-05-07T14:32:15;3.70;;;2.40;;
27744;SDS011;61387;48.112;8.616;2023-05-07T14:34:44;2.73;;;2.17;;
27744;SDS011;61387;48.112;8.616;2023-05-07T14:37:10;2.43;;;2.10;;
27744;SDS011;61387;48.112;8.616;2023-05-07T14:39:36;6.47;;;2.97;;
27744;SDS011;61387;48.112;8.616;2023-05-07T14:42:02;4.00;;;2.00;;
27744;SDS011;61387;48.112;8.616;2023-05-07T14:44:28;3.93;;;2.20;;
27744;SDS011;61387;48.112;8.616;2023-05-07T14:46:54;5.25;;;1.90;;
27744;SDS011;61387;48.112;8.616;2023-05-07T14:49:20;4.17;;;2.20;;
27744;SDS011;61387;48.112;8.616;2023-05-07T14:51:46;2.73;;;2.13;;
27744;SDS011;61387;48.112;8.616;2023-05-07T14:54:15;2.83;;;1.97;;
27744;SDS011;61387;48.112;8.616;2023-05-07T14:56:40;3.00;;;2.00;;
27744;SDS011;61387;48.112;8.616;2023-05-07T14:59:07;2.92;;;2.20;;
27744;SDS011;61387;48.112;8.616;2023-05-07T15:01:36;5.45;;;2.30;;
27744;SDS011;61387;48.112;8.616;2023-05-07T15:04:03;4.40;;;2.40;;
27744;SDS011;61387;48.112;8.616;2023-05-07T15:06:29;3.07;;;2.10;;
27744;SDS011;61387;48.112;8.616;2023-05-07T15:08:54;4.33;;;2.13;;